Aviation Digital Data Service (ADDS)

Output produced by METARs form (1135 UTC 17 June 2019)
found at http://www.aviationweather.gov/metar/data/
 
Forecast for: LIRN (NAPLES/CAPODICHI, IT)
Text: TAF LIRN 171100Z 1712/1812 24010KT 9999 SCT030
Forecast period: 1200 to 1800 UTC 17 June 2019
Forecast type: FROM: standard forecast or significant change
Winds: from the WSW (240 degrees) at 12 MPH (10 knots; 5.1 m/s)
Visibility: 6 or more miles 10+ km)
Ceiling: at least 12,000 feet AGL
Clouds: scattered clouds at 3000 feet AGL
Weather: no significant weather forecast for this period
Text: BECMG 1718/1720 VRB04KT
Forecast period: 1800 UTC 17 June 2019 to 0900 UTC 18 June 2019
Forecast type: BECOMING: Conditions expected to become as follows by 2000 UTC 17 June 2019
Winds: variable direction winds at 5 MPH (4 knots; 2.1 m/s)
Visibility: 6 or more miles 10+ km)
Ceiling: at least 12,000 feet AGL
Clouds: scattered clouds at 3000 feet AGL
Weather: no significant weather forecast for this period
Text: BECMG 1809/1811 24010KT
Forecast period: 0900 to 1200 UTC 18 June 2019
Forecast type: BECOMING: Conditions expected to become as follows by 1100 UTC 18 June 2019
Winds: from the WSW (240 degrees) at 12 MPH (10 knots; 5.1 m/s)
Visibility: 6 or more miles 10+ km)
Ceiling: at least 12,000 feet AGL
Clouds: scattered clouds at 3000 feet AGL
Weather: no significant weather forecast for this period